Chernihiv, Ukraine
Current Conditions -  °F | °C
As of 1:00 AM on Monday 22 Dec 2014 (Local Time) from UMGG Reporting Station
Broken Clouds Broken Clouds  
Wind Chill: 24°   Ceiling: 3300
Heat Index: 34°   Visibility: 6mi
Dew Point: 30°   Wind: 13mph
Humidity: 87%   Direction: 250°WSW
Pressure: 29.77"   Gusts: 20mph
Location:  51.5°N, 31.3°E
Report Text: UMGG 212200Z 25006G09MPS 9999 BKN033 01/M01 Q1008 R28/690250NOSIG
Loading
Personal Weather Stations






























Interactive Weather Map New forecast layout! Learn more

10-Day Weather Forecast

Advertisements
Track Severe Weather on mobile